Time;durP1;ratioP1;P1;durP2;ratioP2;P2;SDS_P1;SDS_P2;PMS_P1;PMS_P2;Temp;Humidity;BMP_temperature;BMP_pressure;BME280_temperature;BME280_humidity;BME280_pressure;Samples;Min_cycle;Max_cycle;Signal;HPM_P1;HPM_P2
2023/11/05 00:00:01;;;;;;;4.22;1.00;;;;;;;18.29;47.59;96951.09;5055717;28;20128;-57
2023/11/05 00:02:26;;;;;;;6.88;1.00;;;;;;;18.27;46.75;96945.97;5055726;28;20048;-57
2023/11/05 00:04:51;;;;;;;1.77;0.80;;;;;;;18.27;46.41;96945.16;5055789;28;20029;-57
2023/11/05 00:07:16;;;;;;;5.35;0.57;;;;;;;18.23;46.85;96935.97;5055619;28;20382;-57
2023/11/05 00:09:42;;;;;;;9.05;1.40;;;;;;;18.23;47.19;96935.97;5054266;28;20454;-57
2023/11/05 00:12:08;;;;;;;6.95;1.02;;;;;;;18.21;46.78;96927.28;5054203;28;20114;-57
2023/11/05 00:14:33;;;;;;;4.00;0.90;;;;;;;18.25;47.08;96929.19;5055346;28;20039;-57
2023/11/05 00:16:59;;;;;;;3.92;1.08;;;;;;;18.25;46.91;96925.66;5054601;28;20032;-57
2023/11/05 00:19:25;;;;;;;4.07;0.90;;;;;;;18.26;46.88;96919.97;5037825;28;20401;-57
2023/11/05 00:21:50;;;;;;;2.85;1.15;;;;;;;18.25;47.78;96926.47;5055555;28;20033;-57
2023/11/05 00:24:17;;;;;;;3.60;0.85;;;;;;;18.26;47.14;96924.56;5055393;28;20040;-57
2023/11/05 00:26:44;;;;;;;9.98;1.17;;;;;;;18.24;47.42;96918.59;5057423;28;20033;-57
2023/11/05 00:29:10;;;;;;;4.43;1.30;;;;;;;18.24;46.74;96926.75;5056981;28;20025;-63
2023/11/05 00:31:35;;;;;;;3.35;0.90;;;;;;;18.17;47.63;96909.97;5058341;28;20090;-57
2023/11/05 00:34:01;;;;;;;4.68;0.90;;;;;;;18.10;47.65;96920.25;5054017;28;20091;-56
2023/11/05 00:36:26;;;;;;;4.68;0.70;;;;;;;18.02;48.15;96911.63;5053809;28;20099;-56
2023/11/05 00:38:55;;;;;;;1.38;0.45;;;;;;;17.96;47.77;96898.34;5055007;28;20068;-57
2023/11/05 00:41:21;;;;;;;6.22;1.02;;;;;;;17.85;47.95;96892.13;5054928;28;20051;-56
2023/11/05 00:43:47;;;;;;;2.35;0.82;;;;;;;17.73;48.56;96893.47;5055110;28;20493;-56
2023/11/05 00:46:13;;;;;;;3.33;0.70;;;;;;;17.66;48.66;96904.59;5054713;28;20485;-56
2023/11/05 00:48:38;;;;;;;5.18;0.70;;;;;;;17.57;48.32;96898.09;5053462;28;20075;-56
2023/11/05 00:51:05;;;;;;;3.92;0.43;;;;;;;17.51;49.62;96896.41;5054730;28;20040;-56
2023/11/05 00:53:31;;;;;;;6.72;0.80;;;;;;;17.43;48.82;96899.66;5053584;28;20033;-57
2023/11/05 00:55:58;;;;;;;5.90;0.70;;;;;;;17.33;49.31;96902.38;5054973;28;20451;-57
2023/11/05 00:58:23;;;;;;;2.45;0.75;;;;;;;17.22;49.50;96895.31;5054624;28;20501;-58
2023/11/05 01:00:49;;;;;;;4.22;0.75;;;;;;;17.16;49.34;96893.69;5036645;28;20033;-58
2023/11/05 01:03:15;;;;;;;4.40;0.90;;;;;;;17.07;49.42;96885.28;5036537;28;20041;-57
2023/11/05 01:05:41;;;;;;;0.70;0.47;;;;;;;17.00;50.30;96879.28;5027323;28;20044;-57
2023/11/05 01:08:06;;;;;;;4.30;0.73;;;;;;;16.95;50.26;96876.59;5054339;28;20501;-57
2023/11/05 01:10:32;;;;;;;2.78;0.60;;;;;;;16.95;50.10;96870.38;5052732;28;20037;-57
2023/11/05 01:12:57;;;;;;;2.38;0.55;;;;;;;16.95;50.04;96873.88;5053043;28;20503;-57
2023/11/05 01:15:23;;;;;;;4.20;0.68;;;;;;;16.97;50.89;96881.75;5054175;28;20025;-57
2023/11/05 01:17:49;;;;;;;3.05;0.47;;;;;;;16.99;50.68;96885.81;5036426;28;20408;-57
2023/11/05 01:20:14;;;;;;;3.35;0.90;;;;;;;16.99;51.30;96871.47;5054286;28;20033;-56
2023/11/05 01:22:40;;;;;;;5.82;0.45;;;;;;;16.95;50.56;96865.78;5052756;28;20036;-56
2023/11/05 01:25:06;;;;;;;0.68;0.30;;;;;;;16.96;50.01;96858.47;5054095;28;20040;-57
2023/11/05 01:27:31;;;;;;;2.90;0.77;;;;;;;16.98;50.35;96859.03;5053871;28;20556;-57
2023/11/05 01:29:56;;;;;;;3.92;0.60;;;;;;;17.00;51.28;96868.47;5036195;28;20095;-57
2023/11/05 01:32:21;;;;;;;3.42;0.77;;;;;;;16.99;51.48;96863.34;5054220;28;20029;-56
2023/11/05 01:34:47;;;;;;;2.40;0.40;;;;;;;16.98;50.69;96864.44;5053586;28;20032;-56
2023/11/05 01:37:13;;;;;;;4.00;0.60;;;;;;;16.96;50.34;96853.91;5053957;28;20116;-56
2023/11/05 01:39:38;;;;;;;3.65;1.10;;;;;;;16.95;50.57;96854.97;5052588;28;20108;-56
2023/11/05 01:42:04;;;;;;;3.67;0.50;;;;;;;16.96;51.51;96844.97;5053743;28;20033;-56
2023/11/05 01:44:29;;;;;;;1.23;0.40;;;;;;;16.99;50.92;96844.44;5053406;28;20040;-56
2023/11/05 01:46:55;;;;;;;9.90;0.60;;;;;;;17.00;51.26;96846.06;5054240;28;20052;-57
2023/11/05 01:49:20;;;;;;;2.60;0.60;;;;;;;16.96;51.27;96836.84;5054012;28;20511;-56
2023/11/05 01:51:46;;;;;;;5.97;1.42;;;;;;;16.94;51.10;96836.31;5053934;28;20071;-56
2023/11/05 01:54:12;;;;;;;2.08;0.50;;;;;;;16.94;50.69;96844.44;5052739;28;20501;-57
2023/11/05 01:56:38;;;;;;;5.13;0.52;;;;;;;16.86;51.07;96819.53;5053017;28;20041;-57
2023/11/05 01:59:03;;;;;;;4.95;0.50;;;;;;;16.88;51.75;96836.31;5053595;28;20100;-56
2023/11/05 02:01:29;;;;;;;1.67;0.60;;;;;;;16.84;51.62;96831.69;5054350;28;20036;-57
2023/11/05 02:03:55;;;;;;;4.25;0.70;;;;;;;16.87;51.53;96821.16;5052877;28;20041;-57
2023/11/05 02:06:20;;;;;;;4.28;0.40;;;;;;;16.87;52.71;96821.16;5054942;28;20025;-57
2023/11/05 02:08:46;;;;;;;2.40;0.73;;;;;;;16.87;51.48;96820.34;5054286;28;20100;-57
2023/11/05 02:11:12;;;;;;;2.80;0.50;;;;;;;16.88;51.58;96821.97;5053722;28;20358;-58
2023/11/05 02:13:47;;;;;;;4.38;0.60;;;;;;;16.84;52.77;96821.69;5054928;28;20021;-61
2023/11/05 02:16:14;;;;;;;2.25;0.60;;;;;;;16.81;51.85;96811.41;5053388;28;20029;-58
2023/11/05 02:18:39;;;;;;;2.78;0.40;;;;;;;16.78;52.53;96819.25;5035333;28;20116;-58
2023/11/05 02:21:05;;;;;;;3.13;0.40;;;;;;;16.77;51.99;96821.16;5053095;28;20037;-59
2023/11/05 02:23:32;;;;;;;4.07;1.08;;;;;;;16.75;51.91;96826.00;5052223;28;20451;-58
2023/11/05 02:25:57;;;;;;;1.65;0.52;;;;;;;16.79;52.72;96816.28;5053193;28;20036;-58
2023/11/05 02:28:23;;;;;;;2.03;0.40;;;;;;;16.81;52.37;96814.13;5035014;28;20086;-58
2023/11/05 02:30:54;;;;;;;4.45;0.30;;;;;;;16.80;51.70;96799.00;5035317;28;20388;-58
2023/11/05 02:33:20;;;;;;;1.58;0.43;;;;;;;16.77;51.61;96794.13;5051838;28;20033;-57
2023/11/05 02:35:45;;;;;;;4.50;0.70;;;;;;;16.82;52.70;96809.53;5051865;28;20032;-57
2023/11/05 02:38:10;;;;;;;3.35;0.60;;;;;;;16.84;53.41;96805.47;5035364;28;20179;-57
2023/11/05 02:40:36;;;;;;;2.65;0.40;;;;;;;16.82;51.95;96807.66;5051813;28;20112;-58
2023/11/05 02:43:01;;;;;;;1.58;0.45;;;;;;;16.82;52.28;96809.53;5051771;28;20037;-58
2023/11/05 02:45:26;;;;;;;2.65;0.75;;;;;;;16.82;52.68;96806.81;5052914;28;20108;-58
2023/11/05 02:47:51;;;;;;;1.75;0.85;;;;;;;16.79;53.18;96802.78;5052800;28;20044;-58
2023/11/05 02:50:17;;;;;;;2.33;0.95;;;;;;;16.77;52.75;96796.81;5051515;28;20124;-58
2023/11/05 02:52:42;;;;;;;0.77;0.68;;;;;;;16.75;53.58;96790.84;5051647;28;20049;-58
2023/11/05 02:55:08;;;;;;;2.35;1.02;;;;;;;16.75;52.95;96796.25;5051731;28;20088;-58
2023/11/05 02:57:36;;;;;;;3.15;0.88;;;;;;;16.74;52.43;96791.97;5041944;28;20029;-58
2023/11/05 03:00:04;;;;;;;4.00;0.85;;;;;;;16.74;53.06;96793.84;5039907;28;20025;-57
2023/11/05 03:02:31;;;;;;;6.70;1.30;;;;;;;16.72;52.80;96790.59;5051294;28;20048;-57
2023/11/05 03:04:57;;;;;;;4.50;1.45;;;;;;;16.71;53.28;96787.09;5035276;28;20506;-58
2023/11/05 03:07:22;;;;;;;1.48;0.70;;;;;;;16.77;53.12;96786.03;5051099;28;20142;-57
2023/11/05 03:09:48;;;;;;;4.00;1.05;;;;;;;16.77;53.19;96787.91;5051467;28;20492;-57
2023/11/05 03:12:13;;;;;;;2.42;1.00;;;;;;;16.78;53.10;96794.91;5052887;28;20029;-57
2023/11/05 03:14:38;;;;;;;1.98;0.50;;;;;;;16.80;53.10;96788.19;5035104;28;20033;-57
2023/11/05 03:17:04;;;;;;;1.60;0.90;;;;;;;16.89;52.38;96796.56;5053352;28;20037;-57
2023/11/05 03:19:29;;;;;;;1.98;0.90;;;;;;;16.92;53.46;96785.22;5051388;28;20025;-57
2023/11/05 03:21:55;;;;;;;0.63;0.40;;;;;;;16.97;54.21;96787.13;5052464;28;20029;-56
2023/11/05 03:24:20;;;;;;;2.13;0.40;;;;;;;16.97;52.91;96781.72;5052392;28;20039;-57
2023/11/05 03:26:46;;;;;;;1.42;0.65;;;;;;;16.97;53.47;96795.22;5051366;28;20104;-57
2023/11/05 03:29:12;;;;;;;1.52;0.60;;;;;;;16.97;53.61;96787.94;5051487;28;20033;-57
2023/11/05 03:31:38;;;;;;;4.43;0.50;;;;;;;17.04;53.95;96793.06;5052351;28;20029;-57
2023/11/05 03:34:03;;;;;;;0.65;0.50;;;;;;;17.10;53.57;96787.41;5052689;28;20037;-56
2023/11/05 03:36:29;;;;;;;2.58;0.75;;;;;;;17.14;53.29;96787.69;5052407;28;20075;-56
2023/11/05 03:38:54;;;;;;;2.55;0.68;;;;;;;17.16;53.68;96780.91;5050867;28;20484;-56
2023/11/05 03:41:20;;;;;;;2.70;0.68;;;;;;;17.17;53.21;96787.16;5051732;28;20044;-56
2023/11/05 03:43:45;;;;;;;5.22;2.42;;;;;;;17.20;52.78;96787.38;5050979;28;20041;-57
2023/11/05 03:46:13;;;;;;;1.88;0.82;;;;;;;17.22;52.72;96785.25;5042083;28;20041;-56
2023/11/05 03:48:39;;;;;;;1.15;0.50;;;;;;;17.26;53.06;96788.19;5041365;28;20087;-57
2023/11/05 03:51:05;;;;;;;2.60;0.65;;;;;;;17.28;53.28;96794.19;5034969;28;20127;-56
2023/11/05 03:53:31;;;;;;;3.33;0.50;;;;;;;17.27;52.81;96787.13;5052173;28;20171;-56
2023/11/05 03:55:57;;;;;;;3.95;0.75;;;;;;;17.27;52.87;96787.94;5032435;28;20045;-56
2023/11/05 03:58:22;;;;;;;3.20;1.00;;;;;;;17.28;53.72;96788.75;5032438;28;20021;-57
2023/11/05 04:00:48;;;;;;;0.82;0.55;;;;;;;17.31;52.49;96790.91;5036238;28;20034;-56
2023/11/05 04:03:13;;;;;;;3.75;0.52;;;;;;;17.33;52.65;96783.34;5034333;28;20060;-57
2023/11/05 04:05:38;;;;;;;1.63;0.30;;;;;;;17.33;52.94;96791.47;5036217;28;20030;-56
2023/11/05 04:08:04;;;;;;;2.47;0.70;;;;;;;17.34;52.72;96798.47;5035366;28;20038;-57
2023/11/05 04:10:29;;;;;;;1.20;0.55;;;;;;;17.39;52.27;96796.56;5035822;28;20079;-57
2023/11/05 04:12:55;;;;;;;1.08;0.20;;;;;;;17.43;53.11;96796.84;5034277;28;20508;-57
2023/11/05 04:15:20;;;;;;;2.53;0.75;;;;;;;17.46;52.65;96807.97;5035977;28;20647;-56
2023/11/05 04:17:45;;;;;;;1.98;0.30;;;;;;;17.50;53.35;96797.41;5034236;28;20022;-56
2023/11/05 04:20:11;;;;;;;4.88;0.40;;;;;;;17.54;52.59;96808.50;5035384;28;20041;-57
2023/11/05 04:22:36;;;;;;;1.58;0.55;;;;;;;17.57;53.02;96802.56;5035632;28;20025;-57
2023/11/05 04:25:01;;;;;;;3.75;0.32;;;;;;;17.55;53.04;96794.72;5035377;28;20029;-56
2023/11/05 04:27:27;;;;;;;5.45;0.32;;;;;;;17.57;52.89;96806.06;5033962;28;20037;-56
2023/11/05 04:29:52;;;;;;;0.52;0.40;;;;;;;17.56;52.08;96804.44;5034988;28;20044;-56
2023/11/05 04:32:18;;;;;;;3.65;0.35;;;;;;;17.55;52.76;96805.53;5035304;28;20085;-56
2023/11/05 04:34:43;;;;;;;4.00;0.40;;;;;;;17.51;52.15;96799.00;5033823;28;20108;-56
2023/11/05 04:37:10;;;;;;;1.25;0.30;;;;;;;17.53;53.13;96807.69;5035243;28;20044;-56
2023/11/05 04:39:36;;;;;;;5.35;0.93;;;;;;;17.50;52.34;96808.22;5034014;28;20032;-56
2023/11/05 04:42:02;;;;;;;1.55;0.47;;;;;;;17.52;53.05;96806.06;5035152;28;20045;-57
2023/11/05 04:44:27;;;;;;;5.38;0.45;;;;;;;17.53;52.49;96802.28;5033750;28;20033;-56
2023/11/05 04:46:52;;;;;;;2.85;0.50;;;;;;;17.55;52.93;96807.44;5034974;28;20030;-57
2023/11/05 04:49:19;;;;;;;3.25;0.25;;;;;;;17.60;53.06;96807.44;5035018;28;20025;-56
2023/11/05 04:51:44;;;;;;;0.88;0.32;;;;;;;17.63;52.57;96815.00;5035015;28;20041;-56
2023/11/05 04:54:10;;;;;;;1.55;0.60;;;;;;;17.63;52.94;96812.28;5033919;28;20060;-56
2023/11/05 04:56:36;;;;;;;4.43;0.32;;;;;;;17.61;52.60;96806.34;5035519;28;20079;-57
2023/11/05 04:59:01;;;;;;;0.73;0.30;;;;;;;17.60;53.08;96802.00;5019156;28;20042;-56
2023/11/05 05:01:27;;;;;;;3.60;0.32;;;;;;;17.58;53.01;96806.91;5034512;28;20031;-56
2023/11/05 05:03:53;;;;;;;1.73;0.25;;;;;;;17.56;52.79;96812.56;5035283;28;20092;-56
2023/11/05 05:06:20;;;;;;;4.78;2.25;;;;;;;17.58;53.18;96813.13;5035203;28;20048;-56
2023/11/05 05:08:48;;;;;;;2.33;0.70;;;;;;;17.58;52.28;96810.41;5033565;28;20087;-57
2023/11/05 05:11:13;;;;;;;0.30;0.20;;;;;;;17.59;53.02;96814.72;5034042;28;20044;-57
2023/11/05 05:13:38;;;;;;;2.08;0.52;;;;;;;17.58;52.81;96810.41;5017389;28;20120;-57
2023/11/05 05:16:07;;;;;;;4.55;0.65;;;;;;;17.56;52.65;96817.97;5033749;28;20034;-56
2023/11/05 05:18:32;;;;;;;3.17;1.02;;;;;;;17.56;53.33;96823.38;5035404;28;20061;-60
2023/11/05 05:20:59;;;;;;;3.97;0.68;;;;;;;17.57;53.29;96827.72;5039254;28;20045;-59
2023/11/05 05:23:24;;;;;;;6.25;0.70;;;;;;;17.56;53.19;96828.00;5023175;28;20029;-67
2023/11/05 05:25:49;;;;;;;2.67;0.45;;;;;;;17.55;53.14;96823.66;5038735;28;20409;-57
2023/11/05 05:28:15;;;;;;;3.30;0.55;;;;;;;17.53;52.88;96823.94;5034573;28;20026;-57
2023/11/05 05:30:40;;;;;;;3.25;1.05;;;;;;;17.54;52.85;96824.75;5034768;28;20482;-56
2023/11/05 05:33:06;;;;;;;2.25;0.60;;;;;;;17.51;52.96;96823.38;5034875;28;20119;-56
2023/11/05 05:35:35;;;;;;;4.03;0.55;;;;;;;17.51;53.31;96830.66;5034589;28;20040;-56
2023/11/05 05:38:00;;;;;;;5.25;0.75;;;;;;;17.51;52.92;96836.88;5016966;28;20030;-56
2023/11/05 05:40:26;;;;;;;2.13;0.68;;;;;;;17.50;52.62;96834.47;5034662;28;20455;-57
2023/11/05 05:42:51;;;;;;;5.70;0.60;;;;;;;17.55;52.67;96839.91;5016451;28;20457;-57
2023/11/05 05:45:17;;;;;;;4.47;0.70;;;;;;;17.57;52.48;96851.25;5032408;28;20033;-57
2023/11/05 05:47:43;;;;;;;2.05;0.52;;;;;;;17.58;53.23;96842.06;5034045;28;20037;-56
2023/11/05 05:50:09;;;;;;;1.58;0.65;;;;;;;17.56;52.76;96845.03;5032390;28;20044;-57
2023/11/05 05:52:34;;;;;;;3.50;0.52;;;;;;;17.60;52.63;96846.13;5034306;28;20042;-57
2023/11/05 05:55:04;;;;;;;3.03;0.98;;;;;;;17.58;53.06;96842.88;5034503;28;20033;-56
2023/11/05 05:57:29;;;;;;;3.53;0.80;;;;;;;17.59;53.13;96849.13;5033345;28;20607;-57
2023/11/05 05:59:54;;;;;;;2.13;0.70;;;;;;;17.59;52.71;96855.31;5033932;28;20037;-57
2023/11/05 06:02:20;;;;;;;2.38;0.52;;;;;;;17.59;52.02;96852.63;5032323;28;20042;-57
2023/11/05 06:04:46;;;;;;;2.33;0.43;;;;;;;17.58;52.84;96859.13;5033700;28;20037;-57
2023/11/05 06:07:13;;;;;;;6.38;1.15;;;;;;;17.57;52.75;96873.72;5032399;28;20045;-56
2023/11/05 06:09:38;;;;;;;4.45;0.65;;;;;;;17.59;52.35;96866.16;5032154;28;20034;-57
2023/11/05 06:12:05;;;;;;;2.65;0.95;;;;;;;17.56;52.92;96872.09;5033355;28;20067;-57
2023/11/05 06:14:30;;;;;;;0.60;0.22;;;;;;;17.57;52.72;96872.91;5032201;28;20045;-57
2023/11/05 06:16:55;;;;;;;1.08;0.20;;;;;;;17.58;52.45;96879.97;5033474;28;20420;-57
2023/11/05 06:19:21;;;;;;;0.20;0.20;;;;;;;17.57;52.18;96881.84;5033609;28;20041;-57
2023/11/05 06:21:46;;;;;;;1.02;0.35;;;;;;;17.60;51.76;96886.72;5033064;28;20025;-57
2023/11/05 06:24:11;;;;;;;1.05;0.25;;;;;;;17.60;52.16;96883.19;5033269;28;20049;-57
2023/11/05 06:26:41;;;;;;;0.60;0.22;;;;;;;17.59;52.84;96876.97;5032259;28;20559;-57
2023/11/05 06:29:07;;;;;;;2.35;0.13;;;;;;;17.61;52.66;96884.84;5015385;28;20087;-56
2023/11/05 06:31:32;;;;;;;0.68;0.10;;;;;;;17.60;52.35;96899.44;5031822;28;20459;-57
2023/11/05 06:33:58;;;;;;;0.32;0.30;;;;;;;17.60;52.18;96899.44;5033118;28;20033;-56
2023/11/05 06:36:24;;;;;;;0.13;0.13;;;;;;;17.57;52.70;96906.19;5031920;28;20025;-57
2023/11/05 06:38:49;;;;;;;0.10;0.10;;;;;;;17.56;52.01;96899.16;5033388;28;20068;-57
2023/11/05 06:41:15;;;;;;;2.45;0.22;;;;;;;17.59;52.18;96914.06;5032348;28;20501;-56
2023/11/05 06:43:40;;;;;;;5.28;0.75;;;;;;;17.60;52.91;96921.91;5015294;28;20040;-57
2023/11/05 06:46:06;;;;;;;2.08;0.20;;;;;;;17.53;52.51;96921.34;5032005;28;20053;-57
2023/11/05 06:48:32;;;;;;;2.30;0.28;;;;;;;17.58;51.87;96934.09;5015257;28;20037;-56
2023/11/05 06:50:58;;;;;;;2.20;0.28;;;;;;;17.57;52.89;96933.25;5031735;28;20064;-57
2023/11/05 06:53:23;;;;;;;0.00;0.00;;;;;;;17.58;52.36;96939.50;4998886;28;20042;-57
2023/11/05 06:55:48;;;;;;;1.30;0.30;;;;;;;17.58;52.49;96937.59;5031891;28;20033;-56
2023/11/05 06:58:17;;;;;;;0.68;0.10;;;;;;;17.63;52.45;96951.13;5032002;28;20026;-56
2023/11/05 07:00:42;;;;;;;2.47;0.25;;;;;;;17.62;52.10;96946.78;5031635;28;20025;-57
2023/11/05 07:03:08;;;;;;;0.38;0.17;;;;;;;17.62;52.89;96957.63;5031595;28;20048;-57
2023/11/05 07:05:33;;;;;;;1.15;0.08;;;;;;;17.62;52.10;96954.91;5032063;28;20041;-56
2023/11/05 07:07:59;;;;;;;0.70;0.43;;;;;;;17.63;52.00;96972.78;5031519;28;20055;-57
2023/11/05 07:10:26;;;;;;;0.10;0.10;;;;;;;17.64;52.10;96973.59;5031487;28;20029;-56
2023/11/05 07:12:52;;;;;;;0.77;0.20;;;;;;;17.64;52.39;96974.44;5032595;28;20061;-56
2023/11/05 07:15:18;;;;;;;0.10;0.00;;;;;;;17.67;52.66;96976.56;5032630;28;20171;-56
2023/11/05 07:17:45;;;;;;;0.10;0.10;;;;;;;17.69;53.02;96982.53;5032657;28;20037;-56
2023/11/05 07:20:14;;;;;;;0.25;0.10;;;;;;;17.74;53.07;96990.66;5031441;28;20033;-57
2023/11/05 07:22:41;;;;;;;0.40;0.20;;;;;;;17.72;51.97;96995.56;5015280;28;20049;-56
2023/11/05 07:25:16;;;;;;;;;;;;;;;17.76;52.44;97007.44;5031856;28;20056;-56
2023/11/05 07:27:41;;;;;;;0.43;0.20;;;;;;;17.79;52.03;97003.38;5032313;28;19917;-56
2023/11/05 07:30:09;;;;;;;1.33;0.50;;;;;;;17.80;52.60;97003.13;5032526;28;20036;-57
2023/11/05 07:32:34;;;;;;;0.38;0.10;;;;;;;17.79;52.47;97006.91;5031012;28;20076;-56
2023/11/05 07:34:59;;;;;;;0.93;0.20;;;;;;;17.81;51.67;97015.56;5036205;28;20393;-57
2023/11/05 07:37:26;;;;;;;3.90;0.32;;;;;;;17.85;52.08;97024.78;5036593;28;20025;-57
2023/11/05 07:39:52;;;;;;;0.82;0.22;;;;;;;17.88;52.62;97021.56;5036315;28;20072;-57
2023/11/05 07:42:19;;;;;;;0.93;0.40;;;;;;;17.90;52.18;97024.78;5035324;28;20044;-57
2023/11/05 07:44:44;;;;;;;0.40;0.20;;;;;;;17.93;52.50;97029.66;5035998;28;20033;-57
2023/11/05 07:47:09;;;;;;;0.68;0.28;;;;;;;17.96;51.76;97034.56;5034736;28;20075;-57
2023/11/05 07:49:35;;;;;;;0.22;0.00;;;;;;;17.99;51.54;97027.78;5034643;28;20040;-56
2023/11/05 07:52:01;;;;;;;0.50;0.30;;;;;;;18.09;52.31;97038.63;5034649;28;20033;-57
2023/11/05 07:54:27;;;;;;;0.88;0.40;;;;;;;18.16;52.24;97032.94;5036139;28;20374;-56
2023/11/05 07:56:53;;;;;;;0.52;0.38;;;;;;;18.24;52.15;97040.53;5035781;28;20133;-56
2023/11/05 07:59:19;;;;;;;1.45;0.50;;;;;;;18.25;52.33;97042.97;5035616;28;20516;-56
2023/11/05 08:01:44;;;;;;;0.73;0.50;;;;;;;18.26;51.66;97043.75;5034308;28;20022;-56
2023/11/05 08:04:10;;;;;;;0.80;0.60;;;;;;;18.32;51.86;97069.78;5035380;28;20041;-56
2023/11/05 08:06:37;;;;;;;1.60;0.45;;;;;;;18.32;51.52;97064.38;5034272;28;20099;-56
2023/11/05 08:09:02;;;;;;;1.08;0.40;;;;;;;18.34;52.05;97063.00;5034740;28;20025;-56
2023/11/05 08:11:27;;;;;;;1.98;0.20;;;;;;;18.38;52.24;97066.00;5035865;28;20029;-56
2023/11/05 08:13:53;;;;;;;1.60;0.32;;;;;;;18.47;51.92;97075.22;5017788;28;20064;-56
2023/11/05 08:16:18;;;;;;;0.68;0.25;;;;;;;18.57;52.13;97077.94;5035598;28;20029;-56
2023/11/05 08:18:44;;;;;;;2.75;0.40;;;;;;;18.63;51.66;97076.03;5034904;28;20036;-57
2023/11/05 08:21:09;;;;;;;3.40;0.63;;;;;;;18.67;51.70;97086.09;5024019;28;20401;-56
2023/11/05 08:23:35;;;;;;;0.32;0.32;;;;;;;18.64;51.66;97083.91;5018247;28;20026;-56
2023/11/05 08:26:01;;;;;;;0.77;0.50;;;;;;;18.63;52.28;97087.69;5014253;28;20022;-56
2023/11/05 08:28:27;;;;;;;0.82;0.38;;;;;;;18.60;51.91;97099.09;5015402;28;20561;-56
2023/11/05 08:30:53;;;;;;;0.90;0.50;;;;;;;18.54;52.03;97105.59;5015774;28;20057;-56
2023/11/05 08:33:18;;;;;;;3.08;0.40;;;;;;;18.46;51.73;97108.81;5018503;28;20033;-56
2023/11/05 08:35:45;;;;;;;0.80;0.30;;;;;;;18.42;52.09;97107.75;5033791;28;20088;-56
2023/11/05 08:38:10;;;;;;;3.13;0.77;;;;;;;18.36;52.24;97111.53;5035515;28;20083;-56
2023/11/05 08:40:35;;;;;;;0.55;0.35;;;;;;;18.31;52.42;97123.19;5033812;28;20030;-57
2023/11/05 08:43:01;;;;;;;0.45;0.22;;;;;;;18.24;52.02;97129.94;5017535;28;20117;-57
2023/11/05 08:45:27;;;;;;;1.88;0.85;;;;;;;18.18;52.51;97133.69;5033938;28;20117;-57
2023/11/05 08:47:53;;;;;;;0.88;0.88;;;;;;;18.13;53.22;97139.13;5035119;28;20057;-57
2023/11/05 08:50:19;;;;;;;1.42;0.52;;;;;;;18.09;53.19;97135.34;5034008;28;20100;-57
2023/11/05 08:52:45;;;;;;;2.15;0.38;;;;;;;18.06;53.19;97141.28;5017348;28;20042;-56
2023/11/05 08:55:12;;;;;;;0.90;0.35;;;;;;;18.01;53.28;97150.19;5033843;28;20026;-56
2023/11/05 08:57:38;;;;;;;0.50;0.40;;;;;;;18.02;53.12;97162.66;5033841;28;20355;-57
2023/11/05 09:00:09;;;;;;;1.60;0.32;;;;;;;18.02;53.05;97163.47;5033435;28;20084;-56
2023/11/05 09:02:35;;;;;;;0.52;0.40;;;;;;;18.09;53.20;97178.66;5034530;28;20497;-56
2023/11/05 09:05:00;;;;;;;0.98;0.40;;;;;;;18.13;52.42;97177.03;5034842;28;20033;-56
2023/11/05 09:07:25;;;;;;;1.15;0.40;;;;;;;18.22;52.95;97189.00;5033184;28;20049;-56
2023/11/05 09:09:51;;;;;;;0.50;0.28;;;;;;;18.31;53.21;97184.69;5034248;28;20045;-57
2023/11/05 09:12:16;;;;;;;0.30;0.20;;;;;;;18.41;52.59;97200.94;5034420;28;20025;-56
2023/11/05 09:14:42;;;;;;;0.65;0.40;;;;;;;18.51;52.87;97209.94;5033253;28;20044;-56
2023/11/05 09:17:08;;;;;;;0.32;0.20;;;;;;;18.65;52.62;97214.88;5033178;28;20029;-57
2023/11/05 09:19:34;;;;;;;1.25;0.30;;;;;;;18.72;52.50;97232.47;5034268;28;20037;-56
2023/11/05 09:21:59;;;;;;;2.30;0.35;;;;;;;18.71;52.94;97230.84;5033032;28;20079;-56
2023/11/05 09:24:27;;;;;;;0.65;0.30;;;;;;;18.75;52.62;97231.94;5025739;28;20057;-56
2023/11/05 09:26:53;;;;;;;1.65;0.47;;;;;;;18.85;52.05;97233.84;5034086;28;20485;-56
2023/11/05 09:29:19;;;;;;;0.70;0.40;;;;;;;18.86;52.19;97249.03;5033010;28;20075;-56
2023/11/05 09:31:44;;;;;;;0.45;0.20;;;;;;;18.86;52.34;97249.03;5032808;28;20124;-56
2023/11/05 09:34:09;;;;;;;1.08;0.30;;;;;;;18.85;52.34;97259.06;5034128;28;20108;-56
2023/11/05 09:36:35;;;;;;;0.95;0.55;;;;;;;18.84;52.48;97262.88;5033925;28;20038;-56
2023/11/05 09:39:00;;;;;;;1.15;0.50;;;;;;;18.86;51.99;97260.72;5032651;28;20030;-56
2023/11/05 09:41:27;;;;;;;0.52;0.32;;;;;;;18.87;52.00;97273.16;5033869;28;20032;-58
2023/11/05 09:43:53;;;;;;;2.08;0.60;;;;;;;18.87;52.10;97278.59;5032787;28;20056;-58
2023/11/05 09:46:19;;;;;;;1.02;0.50;;;;;;;18.83;52.34;97282.94;5032857;28;20120;-58
2023/11/05 09:48:44;;;;;;;1.48;0.40;;;;;;;18.85;51.85;97297.03;5032766;28;20096;-58
2023/11/05 09:51:11;;;;;;;5.13;0.57;;;;;;;18.89;52.21;97302.75;5033020;28;20034;-58
2023/11/05 09:53:36;;;;;;;1.67;0.77;;;;;;;18.92;51.88;97300.31;5032516;28;20034;-58
2023/11/05 09:56:02;;;;;;;4.35;0.55;;;;;;;18.94;52.08;97321.72;5033138;28;20045;-58
2023/11/05 09:58:27;;;;;;;1.00;0.50;;;;;;;19.02;51.83;97324.72;5016206;28;20017;-58
2023/11/05 10:00:53;;;;;;;1.85;0.70;;;;;;;19.04;52.23;97333.41;5015796;28;20088;-58
2023/11/05 10:03:18;;;;;;;4.18;0.80;;;;;;;19.02;52.23;97334.75;5033390;28;20087;-58
2023/11/05 10:05:44;;;;;;;2.22;0.60;;;;;;;18.98;52.33;97356.19;5033186;28;20076;-57
2023/11/05 10:08:10;;;;;;;2.40;0.77;;;;;;;18.93;51.70;97353.47;5032158;28;20515;-57
2023/11/05 10:10:41;;;;;;;2.70;0.60;;;;;;;18.89;52.26;97368.66;5033608;28;20068;-60
2023/11/05 10:13:07;;;;;;;3.00;0.55;;;;;;;18.82;52.12;97370.78;5032882;28;20060;-60
2023/11/05 10:15:42;;;;;;;2.08;0.60;;;;;;;18.87;51.86;97376.22;5034158;28;20057;-57
2023/11/05 10:18:12;;;;;;;2.30;0.63;;;;;;;18.92;51.84;97389.00;5016507;28;20029;-56
2023/11/05 10:20:56;;;;;;;3.10;0.70;;;;;;;18.97;51.84;97392.53;5032206;28;20029;-56
2023/11/05 10:23:23;;;;;;;2.40;0.82;;;;;;;18.96;52.12;97401.75;5032023;28;20064;-56
2023/11/05 10:25:53;;;;;;;3.70;0.93;;;;;;;18.94;52.34;97406.63;5032007;28;20412;-55
2023/11/05 10:28:20;;;;;;;1.80;0.65;;;;;;;18.95;52.54;97435.41;5033103;28;20498;-55
2023/11/05 10:30:47;;;;;;;2.72;0.60;;;;;;;18.98;52.00;97418.56;5032055;28;20460;-55
2023/11/05 10:33:13;;;;;;;2.97;0.75;;;;;;;18.96;51.86;97445.16;5031854;28;20475;-56
2023/11/05 10:35:40;;;;;;;1.52;0.75;;;;;;;18.94;51.84;97450.03;5031620;28;20053;-57
2023/11/05 10:38:05;;;;;;;1.02;0.80;;;;;;;18.88;52.18;97456.53;5033080;28;20606;-58
2023/11/05 10:40:31;;;;;;;1.88;0.82;;;;;;;18.85;52.11;97456.22;5031606;28;20029;-58
2023/11/05 10:42:57;;;;;;;2.33;1.08;;;;;;;18.75;52.52;97457.00;5031616;28;20029;-59
2023/11/05 10:45:22;;;;;;;1.40;0.80;;;;;;;18.64;52.51;97463.47;5015207;28;20041;-58
2023/11/05 10:47:50;;;;;;;1.15;0.50;;;;;;;18.55;52.86;97470.47;5031467;28;20544;-59
2023/11/05 10:50:21;;;;;;;1.35;0.82;;;;;;;18.45;52.74;97481.22;5031649;28;20045;-58
2023/11/05 10:52:49;;;;;;;2.20;0.75;;;;;;;18.38;52.93;97505.81;5015079;28;20041;-59
2023/11/05 10:55:15;;;;;;;2.28;1.38;;;;;;;18.38;52.72;97510.44;5031873;28;20049;-58
2023/11/05 10:57:42;;;;;;;1.42;0.73;;;;;;;18.39;52.76;97514.78;5015193;28;20033;-58
2023/11/05 11:00:15;;;;;;;3.60;1.40;;;;;;;18.43;52.56;97529.44;5032996;28;20033;-58
2023/11/05 11:02:40;;;;;;;2.33;1.60;;;;;;;18.47;52.35;97527.84;5032766;28;20050;-58
2023/11/05 11:05:13;;;;;;;4.18;1.08;;;;;;;18.53;52.80;97549.34;5032511;28;20107;-58
2023/11/05 11:07:39;;;;;;;5.97;2.00;;;;;;;18.55;52.91;97540.94;5034432;28;20040;-58
2023/11/05 11:10:07;;;;;;;1.73;1.02;;;;;;;18.56;52.82;97548.00;5018806;28;20531;-57
2023/11/05 11:12:33;;;;;;;3.45;0.93;;;;;;;18.54;52.77;97548.25;5035765;28;20025;-57
2023/11/05 11:14:59;;;;;;;3.08;1.02;;;;;;;18.54;52.57;97569.13;5036813;28;20107;-57
2023/11/05 11:17:37;;;;;;;2.90;1.00;;;;;;;18.50;52.66;97568.03;5035371;28;20459;-59
2023/11/05 11:20:15;;;;;;;6.72;1.33;;;;;;;18.38;52.94;97572.75;5036446;28;20021;-59
2023/11/05 11:22:44;;;;;;;5.90;1.17;;;;;;;18.24;53.50;97587.81;5036640;28;20069;-59
2023/11/05 11:25:17;;;;;;;4.00;1.13;;;;;;;18.16;53.45;97591.00;5036464;28;20116;-58
2023/11/05 11:27:43;;;;;;;2.63;1.33;;;;;;;18.15;53.23;97589.34;5035221;28;20026;-58